Etusivu
METAR-TAF:

METAR-TAF

Lentoasemat :

Pihkova, Venäjä

Leveyspiiri: 57-47-06N, Pituuspiiri: 028-23-54E, korkeus merenpinnasta: 47 m

Tämänhetkinen sää

Tämä raportti tehtiin 52 minuuttia sitten, kello 19.00 UTC
tyyntä
Lämpötila 11°C
Kosteus 50%
Ilmanpaine 1025 hPa
Näkyvyys: 5000 m

METAR: ULOO 241900Z AUTO 00000MPS 5000 // ///061/// 11/01 Q1025 RMK QFE764

Aika: 22:52 (19:52 UTC)

Sääennuste

Tämä raportti tehtiin 8 tuntia ja 52 minuuttia sitten, kello 11.00 UTC
Ennuste voimassa 24. päivästä klo 12 UTC - 24. päivään klo 21 UTC
Tuuli 2 kn eri suunnista
Näkyvyys 10 km tai enemmän
ei pilviä alle 1500 m:ssä eikä cumulonimbus-pilviä
Ajoittain
24. päivästä klo 12 UTC - 24. päivään klo 16 UTC
Tuuli 6 kn etelästä/lounaasta
Tulossa
24. päivästä klo 16 UTC - 24. päivään klo 18 UTC
Tuuli 6 kn idästä

TAF: ULOO 241100Z 2412/2421 VRB01MPS CAVOK TEMPO 2412/2416 20003MPS BECMG 2416/2418 10003MPS

Säähavainnot ja -ennusteet yli 4000 lentoasemalta (METAR- ja TAF-raportit).

Käytössä olevat sääasemat on merkitty karttaan keltaisilla ja punaisilla pisteillä.

Aseta hiiri pisteen päälle nähdäksesi sääaseman nimen.

Klikkaa sitten nähdäksesi säähavainnot ja -ennusteet.

Kartan vaihtaminen: klikkaa mustalla rastilla varustettuja vihreitä pisteitä, niin voit zoomata sisään; viivalla varustettua vihreää pistettä, niin voit zoomata ulos tai vihreitä nuolia, niin pääset viereisille kartoille.


METAR-TAF: